sensor_id;sensor_type;location;lat;lon;timestamp;temperature;humidity
80210;DHT22;69529;37.974;23.708;2023-04-24T00:00:12;23.40;40.30
80210;DHT22;69529;37.974;23.708;2023-04-24T00:02:41;23.40;40.30
80210;DHT22;69529;37.974;23.708;2023-04-24T00:05:11;23.40;40.30
80210;DHT22;69529;37.974;23.708;2023-04-24T00:07:39;23.40;40.40
80210;DHT22;69529;37.974;23.708;2023-04-24T00:10:08;23.30;40.50
80210;DHT22;69529;37.974;23.708;2023-04-24T00:12:36;23.30;40.50
80210;DHT22;69529;37.974;23.708;2023-04-24T00:15:05;23.30;40.50
80210;DHT22;69529;37.974;23.708;2023-04-24T00:17:32;23.30;40.50
80210;DHT22;69529;37.974;23.708;2023-04-24T00:20:00;23.30;40.50
80210;DHT22;69529;37.974;23.708;2023-04-24T00:22:30;23.40;40.50
80210;DHT22;69529;37.974;23.708;2023-04-24T00:24:58;23.40;40.50
80210;DHT22;69529;37.974;23.708;2023-04-24T00:27:25;23.30;40.50
80210;DHT22;69529;37.974;23.708;2023-04-24T00:29:53;23.30;40.70
80210;DHT22;69529;37.974;23.708;2023-04-24T00:32:21;23.30;40.60
80210;DHT22;69529;37.974;23.708;2023-04-24T00:34:48;23.30;40.70
80210;DHT22;69529;37.974;23.708;2023-04-24T00:37:16;23.30;40.70
80210;DHT22;69529;37.974;23.708;2023-04-24T00:39:44;23.30;40.70
80210;DHT22;69529;37.974;23.708;2023-04-24T00:42:12;23.30;40.80
80210;DHT22;69529;37.974;23.708;2023-04-24T00:44:40;23.30;40.80
80210;DHT22;69529;37.974;23.708;2023-04-24T00:47:07;23.20;40.80
80210;DHT22;69529;37.974;23.708;2023-04-24T00:49:35;23.30;40.80
80210;DHT22;69529;37.974;23.708;2023-04-24T00:52:03;23.30;40.80
80210;DHT22;69529;37.974;23.708;2023-04-24T00:54:32;23.30;40.80
80210;DHT22;69529;37.974;23.708;2023-04-24T00:57:00;23.30;40.90
80210;DHT22;69529;37.974;23.708;2023-04-24T00:59:28;23.30;40.80
80210;DHT22;69529;37.974;23.708;2023-04-24T01:01:56;23.30;40.80
80210;DHT22;69529;37.974;23.708;2023-04-24T01:04:24;23.30;40.80
80210;DHT22;69529;37.974;23.708;2023-04-24T01:06:53;23.30;40.80
80210;DHT22;69529;37.974;23.708;2023-04-24T01:09:23;23.30;40.80
80210;DHT22;69529;37.974;23.708;2023-04-24T01:11:52;23.30;40.80
80210;DHT22;69529;37.974;23.708;2023-04-24T01:14:20;23.20;40.90
80210;DHT22;69529;37.974;23.708;2023-04-24T01:16:48;23.20;40.90
80210;DHT22;69529;37.974;23.708;2023-04-24T01:19:16;23.20;40.90
80210;DHT22;69529;37.974;23.708;2023-04-24T01:21:46;23.30;40.80
80210;DHT22;69529;37.974;23.708;2023-04-24T01:24:14;23.30;40.90
80210;DHT22;69529;37.974;23.708;2023-04-24T01:26:42;23.20;40.90
80210;DHT22;69529;37.974;23.708;2023-04-24T01:29:10;23.20;40.90
80210;DHT22;69529;37.974;23.708;2023-04-24T01:31:38;23.20;40.90
80210;DHT22;69529;37.974;23.708;2023-04-24T01:34:06;23.20;40.90
80210;DHT22;69529;37.974;23.708;2023-04-24T01:36:35;23.20;41.60
80210;DHT22;69529;37.974;23.708;2023-04-24T01:39:03;23.30;40.90
80210;DHT22;69529;37.974;23.708;2023-04-24T01:41:30;23.30;40.90
80210;DHT22;69529;37.974;23.708;2023-04-24T01:43:59;23.30;40.90
80210;DHT22;69529;37.974;23.708;2023-04-24T01:46:26;23.20;41.00
80210;DHT22;69529;37.974;23.708;2023-04-24T01:48:54;23.30;41.00
80210;DHT22;69529;37.974;23.708;2023-04-24T01:51:22;23.20;40.90
80210;DHT22;69529;37.974;23.708;2023-04-24T01:53:50;23.20;41.00
80210;DHT22;69529;37.974;23.708;2023-04-24T01:56:18;23.20;41.00
80210;DHT22;69529;37.974;23.708;2023-04-24T01:58:46;23.20;41.00
80210;DHT22;69529;37.974;23.708;2023-04-24T02:01:20;23.20;41.00
80210;DHT22;69529;37.974;23.708;2023-04-24T02:03:48;23.20;41.40
80210;DHT22;69529;37.974;23.708;2023-04-24T02:06:16;23.20;41.10
80210;DHT22;69529;37.974;23.708;2023-04-24T02:08:44;23.20;41.10
80210;DHT22;69529;37.974;23.708;2023-04-24T02:11:12;23.20;41.10
80210;DHT22;69529;37.974;23.708;2023-04-24T02:13:40;23.20;41.20
80210;DHT22;69529;37.974;23.708;2023-04-24T02:16:07;23.20;41.00
80210;DHT22;69529;37.974;23.708;2023-04-24T02:18:35;23.20;41.00
80210;DHT22;69529;37.974;23.708;2023-04-24T02:21:02;23.20;41.10
80210;DHT22;69529;37.974;23.708;2023-04-24T02:23:30;23.20;41.10
80210;DHT22;69529;37.974;23.708;2023-04-24T02:25:58;23.20;41.10
80210;DHT22;69529;37.974;23.708;2023-04-24T02:28:25;23.20;41.30
80210;DHT22;69529;37.974;23.708;2023-04-24T02:30:53;23.20;41.90
80210;DHT22;69529;37.974;23.708;2023-04-24T02:33:21;23.10;41.40
80210;DHT22;69529;37.974;23.708;2023-04-24T02:35:49;23.10;41.30
80210;DHT22;69529;37.974;23.708;2023-04-24T02:38:16;23.10;41.40
80210;DHT22;69529;37.974;23.708;2023-04-24T02:40:44;23.10;41.30
80210;DHT22;69529;37.974;23.708;2023-04-24T02:43:12;23.10;41.30
80210;DHT22;69529;37.974;23.708;2023-04-24T02:45:39;23.10;41.30
80210;DHT22;69529;37.974;23.708;2023-04-24T02:48:07;23.10;41.40
80210;DHT22;69529;37.974;23.708;2023-04-24T02:50:36;23.10;41.40
80210;DHT22;69529;37.974;23.708;2023-04-24T02:53:03;23.10;41.50
80210;DHT22;69529;37.974;23.708;2023-04-24T02:55:31;23.10;41.50
80210;DHT22;69529;37.974;23.708;2023-04-24T02:57:58;23.10;41.60
80210;DHT22;69529;37.974;23.708;2023-04-24T03:00:26;23.10;41.50
80210;DHT22;69529;37.974;23.708;2023-04-24T03:02:54;23.00;41.50
80210;DHT22;69529;37.974;23.708;2023-04-24T03:05:21;23.00;41.60
80210;DHT22;69529;37.974;23.708;2023-04-24T03:07:49;23.00;41.60
80210;DHT22;69529;37.974;23.708;2023-04-24T03:10:18;23.00;41.60
80210;DHT22;69529;37.974;23.708;2023-04-24T03:12:46;23.00;41.60
80210;DHT22;69529;37.974;23.708;2023-04-24T03:15:14;23.00;41.70
80210;DHT22;69529;37.974;23.708;2023-04-24T03:17:42;23.00;41.60
80210;DHT22;69529;37.974;23.708;2023-04-24T03:20:10;23.00;41.60
80210;DHT22;69529;37.974;23.708;2023-04-24T03:22:37;23.00;41.60
80210;DHT22;69529;37.974;23.708;2023-04-24T03:25:06;23.00;41.70
80210;DHT22;69529;37.974;23.708;2023-04-24T03:27:35;23.00;41.60
80210;DHT22;69529;37.974;23.708;2023-04-24T03:30:04;23.00;41.70
80210;DHT22;69529;37.974;23.708;2023-04-24T03:32:32;23.00;41.70
80210;DHT22;69529;37.974;23.708;2023-04-24T03:35:00;23.00;41.70
80210;DHT22;69529;37.974;23.708;2023-04-24T03:37:28;23.00;42.40
80210;DHT22;69529;37.974;23.708;2023-04-24T03:39:55;23.00;43.10
80210;DHT22;69529;37.974;23.708;2023-04-24T03:42:23;23.00;42.80
80210;DHT22;69529;37.974;23.708;2023-04-24T03:44:51;23.10;42.60
80210;DHT22;69529;37.974;23.708;2023-04-24T03:47:18;23.10;42.60
80210;DHT22;69529;37.974;23.708;2023-04-24T03:49:46;23.10;42.60
80210;DHT22;69529;37.974;23.708;2023-04-24T03:52:13;23.10;42.50
80210;DHT22;69529;37.974;23.708;2023-04-24T03:54:41;23.10;42.60
80210;DHT22;69529;37.974;23.708;2023-04-24T03:57:09;23.10;42.30
80210;DHT22;69529;37.974;23.708;2023-04-24T03:59:36;23.20;42.20
80210;DHT22;69529;37.974;23.708;2023-04-24T04:02:04;23.20;42.10
80210;DHT22;69529;37.974;23.708;2023-04-24T04:04:32;23.20;42.10
80210;DHT22;69529;37.974;23.708;2023-04-24T04:06:59;23.20;42.20
80210;DHT22;69529;37.974;23.708;2023-04-24T04:09:29;23.20;42.10
80210;DHT22;69529;37.974;23.708;2023-04-24T04:11:56;23.20;42.20
80210;DHT22;69529;37.974;23.708;2023-04-24T04:14:24;23.20;42.20
80210;DHT22;69529;37.974;23.708;2023-04-24T04:16:52;23.20;42.10
80210;DHT22;69529;37.974;23.708;2023-04-24T04:19:19;23.30;42.70
80210;DHT22;69529;37.974;23.708;2023-04-24T04:21:47;23.30;43.50
80210;DHT22;69529;37.974;23.708;2023-04-24T04:24:16;23.30;43.60
80210;DHT22;69529;37.974;23.708;2023-04-24T04:26:44;23.40;43.70
80210;DHT22;69529;37.974;23.708;2023-04-24T04:29:14;23.40;43.60
80210;DHT22;69529;37.974;23.708;2023-04-24T04:31:42;23.40;43.40
80210;DHT22;69529;37.974;23.708;2023-04-24T04:34:09;23.40;43.30
80210;DHT22;69529;37.974;23.708;2023-04-24T04:36:38;23.40;43.20
80210;DHT22;69529;37.974;23.708;2023-04-24T04:39:06;23.50;43.00
80210;DHT22;69529;37.974;23.708;2023-04-24T04:41:34;23.50;42.90
80210;DHT22;69529;37.974;23.708;2023-04-24T04:44:02;23.50;42.70
80210;DHT22;69529;37.974;23.708;2023-04-24T04:46:31;23.50;42.60
80210;DHT22;69529;37.974;23.708;2023-04-24T04:49:00;23.50;42.50
80210;DHT22;69529;37.974;23.708;2023-04-24T04:51:29;23.50;42.60
80210;DHT22;69529;37.974;23.708;2023-04-24T04:53:57;23.60;42.50
80210;DHT22;69529;37.974;23.708;2023-04-24T04:56:25;23.60;42.50
80210;DHT22;69529;37.974;23.708;2023-04-24T04:58:52;23.60;42.30
80210;DHT22;69529;37.974;23.708;2023-04-24T05:01:20;23.70;42.20
80210;DHT22;69529;37.974;23.708;2023-04-24T05:03:49;23.60;42.20
80210;DHT22;69529;37.974;23.708;2023-04-24T05:06:17;23.70;42.10
80210;DHT22;69529;37.974;23.708;2023-04-24T05:08:44;23.70;42.00
80210;DHT22;69529;37.974;23.708;2023-04-24T05:11:12;23.70;42.00
80210;DHT22;69529;37.974;23.708;2023-04-24T05:13:40;23.80;42.00
80210;DHT22;69529;37.974;23.708;2023-04-24T05:16:07;23.80;41.80
80210;DHT22;69529;37.974;23.708;2023-04-24T05:18:35;23.90;41.60
80210;DHT22;69529;37.974;23.708;2023-04-24T05:21:03;24.00;41.40
80210;DHT22;69529;37.974;23.708;2023-04-24T05:23:30;24.00;41.30
80210;DHT22;69529;37.974;23.708;2023-04-24T05:25:58;24.20;41.10
80210;DHT22;69529;37.974;23.708;2023-04-24T05:28:26;24.30;40.90
80210;DHT22;69529;37.974;23.708;2023-04-24T05:30:56;24.40;40.70
80210;DHT22;69529;37.974;23.708;2023-04-24T05:33:25;24.50;40.50
80210;DHT22;69529;37.974;23.708;2023-04-24T05:35:53;24.70;40.20
80210;DHT22;69529;37.974;23.708;2023-04-24T05:38:21;24.80;39.90
80210;DHT22;69529;37.974;23.708;2023-04-24T05:40:48;25.10;39.50
80210;DHT22;69529;37.974;23.708;2023-04-24T05:43:16;25.30;39.10
80210;DHT22;69529;37.974;23.708;2023-04-24T05:45:44;25.60;38.50
80210;DHT22;69529;37.974;23.708;2023-04-24T05:48:11;25.90;37.80
80210;DHT22;69529;37.974;23.708;2023-04-24T05:50:39;26.10;37.50
80210;DHT22;69529;37.974;23.708;2023-04-24T05:53:07;26.20;37.30
80210;DHT22;69529;37.974;23.708;2023-04-24T05:55:36;26.40;37.00
80210;DHT22;69529;37.974;23.708;2023-04-24T05:58:04;26.60;36.70
80210;DHT22;69529;37.974;23.708;2023-04-24T06:00:34;26.70;36.50
80210;DHT22;69529;37.974;23.708;2023-04-24T06:03:02;26.60;36.30
80210;DHT22;69529;37.974;23.708;2023-04-24T06:05:30;26.70;36.30
80210;DHT22;69529;37.974;23.708;2023-04-24T06:07:57;26.70;36.30
80210;DHT22;69529;37.974;23.708;2023-04-24T06:10:25;26.70;36.20
80210;DHT22;69529;37.974;23.708;2023-04-24T06:12:53;26.60;36.50
80210;DHT22;69529;37.974;23.708;2023-04-24T06:15:23;26.50;36.60
80210;DHT22;69529;37.974;23.708;2023-04-24T06:17:50;26.30;36.90
80210;DHT22;69529;37.974;23.708;2023-04-24T06:20:18;26.30;37.10
80210;DHT22;69529;37.974;23.708;2023-04-24T06:22:45;26.10;37.30
80210;DHT22;69529;37.974;23.708;2023-04-24T06:25:13;26.30;37.30
80210;DHT22;69529;37.974;23.708;2023-04-24T06:27:41;26.10;37.60
80210;DHT22;69529;37.974;23.708;2023-04-24T06:30:09;26.00;37.60
80210;DHT22;69529;37.974;23.708;2023-04-24T06:32:37;26.10;37.70
80210;DHT22;69529;37.974;23.708;2023-04-24T06:35:05;26.00;37.80
80210;DHT22;69529;37.974;23.708;2023-04-24T06:37:34;26.00;37.70
80210;DHT22;69529;37.974;23.708;2023-04-24T06:40:02;26.00;37.80
80210;DHT22;69529;37.974;23.708;2023-04-24T06:42:31;25.90;37.80
80210;DHT22;69529;37.974;23.708;2023-04-24T06:44:59;25.90;38.00
80210;DHT22;69529;37.974;23.708;2023-04-24T06:47:27;25.80;38.10
80210;DHT22;69529;37.974;23.708;2023-04-24T06:49:55;25.80;38.40
80210;DHT22;69529;37.974;23.708;2023-04-24T06:52:22;25.70;38.50
80210;DHT22;69529;37.974;23.708;2023-04-24T06:54:50;25.60;38.50
80210;DHT22;69529;37.974;23.708;2023-04-24T06:57:18;25.60;38.70
80210;DHT22;69529;37.974;23.708;2023-04-24T06:59:47;25.60;38.70
80210;DHT22;69529;37.974;23.708;2023-04-24T07:02:14;25.50;38.80
80210;DHT22;69529;37.974;23.708;2023-04-24T07:04:42;25.50;38.90
80210;DHT22;69529;37.974;23.708;2023-04-24T07:07:09;25.50;38.90
80210;DHT22;69529;37.974;23.708;2023-04-24T07:09:41;25.50;38.80
80210;DHT22;69529;37.974;23.708;2023-04-24T07:12:09;25.50;39.10
80210;DHT22;69529;37.974;23.708;2023-04-24T07:14:39;25.40;39.10
80210;DHT22;69529;37.974;23.708;2023-04-24T07:17:07;25.40;39.40
80210;DHT22;69529;37.974;23.708;2023-04-24T07:19:35;25.30;39.60
80210;DHT22;69529;37.974;23.708;2023-04-24T07:22:03;25.30;39.70
80210;DHT22;69529;37.974;23.708;2023-04-24T07:24:31;25.30;39.70
80210;DHT22;69529;37.974;23.708;2023-04-24T07:27:01;25.30;39.70
80210;DHT22;69529;37.974;23.708;2023-04-24T07:29:29;25.40;39.80
80210;DHT22;69529;37.974;23.708;2023-04-24T07:31:57;25.30;39.80
80210;DHT22;69529;37.974;23.708;2023-04-24T07:34:25;25.30;40.00
80210;DHT22;69529;37.974;23.708;2023-04-24T07:36:52;25.20;39.90
80210;DHT22;69529;37.974;23.708;2023-04-24T07:39:20;25.30;39.90
80210;DHT22;69529;37.974;23.708;2023-04-24T07:41:48;25.20;40.00
80210;DHT22;69529;37.974;23.708;2023-04-24T07:44:16;25.20;40.10
80210;DHT22;69529;37.974;23.708;2023-04-24T07:46:43;25.20;40.10
80210;DHT22;69529;37.974;23.708;2023-04-24T07:49:11;25.10;40.10
80210;DHT22;69529;37.974;23.708;2023-04-24T07:51:39;25.10;40.10
80210;DHT22;69529;37.974;23.708;2023-04-24T07:54:07;25.10;40.20
80210;DHT22;69529;37.974;23.708;2023-04-24T07:56:35;25.20;40.20
80210;DHT22;69529;37.974;23.708;2023-04-24T07:59:05;25.20;40.30
80210;DHT22;69529;37.974;23.708;2023-04-24T08:01:32;25.20;40.40
80210;DHT22;69529;37.974;23.708;2023-04-24T08:04:00;25.10;40.70
80210;DHT22;69529;37.974;23.708;2023-04-24T08:06:29;25.10;40.70
80210;DHT22;69529;37.974;23.708;2023-04-24T08:08:58;25.10;40.80
80210;DHT22;69529;37.974;23.708;2023-04-24T08:11:27;25.10;40.80
80210;DHT22;69529;37.974;23.708;2023-04-24T08:13:54;25.20;41.00
80210;DHT22;69529;37.974;23.708;2023-04-24T08:16:22;25.10;41.10
80210;DHT22;69529;37.974;23.708;2023-04-24T08:18:53;25.10;41.30
80210;DHT22;69529;37.974;23.708;2023-04-24T08:21:21;25.00;41.30
80210;DHT22;69529;37.974;23.708;2023-04-24T08:23:48;25.00;41.50
80210;DHT22;69529;37.974;23.708;2023-04-24T08:26:17;25.00;41.50
80210;DHT22;69529;37.974;23.708;2023-04-24T08:28:44;25.00;41.50
80210;DHT22;69529;37.974;23.708;2023-04-24T08:31:12;24.90;42.00
80210;DHT22;69529;37.974;23.708;2023-04-24T08:33:40;24.90;42.30
80210;DHT22;69529;37.974;23.708;2023-04-24T08:36:08;24.90;42.40
80210;DHT22;69529;37.974;23.708;2023-04-24T08:38:36;24.90;42.70
80210;DHT22;69529;37.974;23.708;2023-04-24T08:41:03;24.90;42.80
80210;DHT22;69529;37.974;23.708;2023-04-24T08:43:33;24.90;42.90
80210;DHT22;69529;37.974;23.708;2023-04-24T08:46:00;24.90;43.20
80210;DHT22;69529;37.974;23.708;2023-04-24T08:48:29;24.90;43.20
80210;DHT22;69529;37.974;23.708;2023-04-24T08:50:57;24.90;43.20
80210;DHT22;69529;37.974;23.708;2023-04-24T08:53:26;24.90;43.10
80210;DHT22;69529;37.974;23.708;2023-04-24T08:55:55;25.00;42.90
80210;DHT22;69529;37.974;23.708;2023-04-24T08:58:25;25.10;42.80
80210;DHT22;69529;37.974;23.708;2023-04-24T09:00:55;25.10;42.60
80210;DHT22;69529;37.974;23.708;2023-04-24T09:03:23;25.10;42.60
80210;DHT22;69529;37.974;23.708;2023-04-24T09:05:53;25.10;42.50
80210;DHT22;69529;37.974;23.708;2023-04-24T09:08:24;25.10;42.40
80210;DHT22;69529;37.974;23.708;2023-04-24T09:10:52;25.10;42.20
80210;DHT22;69529;37.974;23.708;2023-04-24T09:13:20;25.10;42.10
80210;DHT22;69529;37.974;23.708;2023-04-24T09:15:48;25.00;42.10
80210;DHT22;69529;37.974;23.708;2023-04-24T09:18:15;25.00;42.10
80210;DHT22;69529;37.974;23.708;2023-04-24T09:21:03;25.00;42.00
80210;DHT22;69529;37.974;23.708;2023-04-24T09:23:32;25.00;42.00
80210;DHT22;69529;37.974;23.708;2023-04-24T09:26:01;25.10;42.10
80210;DHT22;69529;37.974;23.708;2023-04-24T09:28:36;25.10;42.10
80210;DHT22;69529;37.974;23.708;2023-04-24T09:31:17;25.00;42.70
80210;DHT22;69529;37.974;23.708;2023-04-24T09:34:04;25.00;42.10
80210;DHT22;69529;37.974;23.708;2023-04-24T09:36:42;25.00;42.30
80210;DHT22;69529;37.974;23.708;2023-04-24T09:39:12;25.00;42.60
80210;DHT22;69529;37.974;23.708;2023-04-24T09:41:52;24.90;42.80
80210;DHT22;69529;37.974;23.708;2023-04-24T09:44:23;24.90;42.90
80210;DHT22;69529;37.974;23.708;2023-04-24T09:46:53;24.90;42.80
80210;DHT22;69529;37.974;23.708;2023-04-24T09:49:23;25.00;42.90
80210;DHT22;69529;37.974;23.708;2023-04-24T09:51:52;25.00;43.10
80210;DHT22;69529;37.974;23.708;2023-04-24T09:54:21;25.00;42.60
80210;DHT22;69529;37.974;23.708;2023-04-24T09:56:50;25.00;42.90
80210;DHT22;69529;37.974;23.708;2023-04-24T09:59:19;25.10;43.00
80210;DHT22;69529;37.974;23.708;2023-04-24T10:01:47;25.10;43.10
80210;DHT22;69529;37.974;23.708;2023-04-24T10:04:24;25.10;42.90
80210;DHT22;69529;37.974;23.708;2023-04-24T10:06:55;25.10;43.00
80210;DHT22;69529;37.974;23.708;2023-04-24T10:09:24;25.10;43.00
80210;DHT22;69529;37.974;23.708;2023-04-24T10:11:53;25.20;43.00
80210;DHT22;69529;37.974;23.708;2023-04-24T10:14:23;25.10;42.90
80210;DHT22;69529;37.974;23.708;2023-04-24T10:16:55;25.10;43.10
80210;DHT22;69529;37.974;23.708;2023-04-24T10:19:26;25.10;43.10
80210;DHT22;69529;37.974;23.708;2023-04-24T10:21:54;25.10;43.00
80210;DHT22;69529;37.974;23.708;2023-04-24T10:24:22;25.10;43.00
80210;DHT22;69529;37.974;23.708;2023-04-24T10:26:49;25.20;43.00
80210;DHT22;69529;37.974;23.708;2023-04-24T10:29:19;25.10;43.10
80210;DHT22;69529;37.974;23.708;2023-04-24T10:31:48;25.20;43.30
80210;DHT22;69529;37.974;23.708;2023-04-24T10:34:18;25.10;43.10
80210;DHT22;69529;37.974;23.708;2023-04-24T10:36:50;25.10;43.30
80210;DHT22;69529;37.974;23.708;2023-04-24T10:39:19;25.20;43.40
80210;DHT22;69529;37.974;23.708;2023-04-24T10:41:49;25.10;44.10
80210;DHT22;69529;37.974;23.708;2023-04-24T10:44:17;25.10;43.40
80210;DHT22;69529;37.974;23.708;2023-04-24T10:46:46;25.10;43.30
80210;DHT22;69529;37.974;23.708;2023-04-24T10:49:17;25.20;43.30
80210;DHT22;69529;37.974;23.708;2023-04-24T10:51:54;25.10;43.30
80210;DHT22;69529;37.974;23.708;2023-04-24T10:54:28;25.10;43.30
80210;DHT22;69529;37.974;23.708;2023-04-24T11:00:10;25.20;43.40
80210;DHT22;69529;37.974;23.708;2023-04-24T11:02:35;25.10;43.40
80210;DHT22;69529;37.974;23.708;2023-04-24T11:04:52;25.10;43.40
80210;DHT22;69529;37.974;23.708;2023-04-24T11:07:21;25.10;43.10
80210;DHT22;69529;37.974;23.708;2023-04-24T11:09:57;25.10;43.40
80210;DHT22;69529;37.974;23.708;2023-04-24T11:12:19;25.10;43.40
80210;DHT22;69529;37.974;23.708;2023-04-24T11:17:37;25.10;43.40
80210;DHT22;69529;37.974;23.708;2023-04-24T11:20:17;25.10;43.50
80210;DHT22;69529;37.974;23.708;2023-04-24T11:22:38;25.10;43.50
80210;DHT22;69529;37.974;23.708;2023-04-24T11:25:07;25.10;43.50
80210;DHT22;69529;37.974;23.708;2023-04-24T11:27:43;25.10;43.50
80210;DHT22;69529;37.974;23.708;2023-04-24T11:30:12;25.00;43.40
80210;DHT22;69529;37.974;23.708;2023-04-24T11:32:42;25.00;43.40
80210;DHT22;69529;37.974;23.708;2023-04-24T11:35:22;25.00;43.30
80210;DHT22;69529;37.974;23.708;2023-04-24T11:37:53;25.10;43.10
80210;DHT22;69529;37.974;23.708;2023-04-24T11:40:22;25.10;42.90
80210;DHT22;69529;37.974;23.708;2023-04-24T11:42:52;25.10;43.10
80210;DHT22;69529;37.974;23.708;2023-04-24T11:45:25;25.10;43.00
80210;DHT22;69529;37.974;23.708;2023-04-24T11:47:53;25.10;43.00
80210;DHT22;69529;37.974;23.708;2023-04-24T11:50:25;25.00;43.00
80210;DHT22;69529;37.974;23.708;2023-04-24T11:52:54;25.10;43.10
80210;DHT22;69529;37.974;23.708;2023-04-24T11:55:24;25.10;43.00
80210;DHT22;69529;37.974;23.708;2023-04-24T11:57:56;25.10;43.20
80210;DHT22;69529;37.974;23.708;2023-04-24T12:00:29;25.10;43.20
80210;DHT22;69529;37.974;23.708;2023-04-24T12:03:09;25.10;43.40
80210;DHT22;69529;37.974;23.708;2023-04-24T12:05:38;25.10;43.40
80210;DHT22;69529;37.974;23.708;2023-04-24T12:08:06;25.10;43.60
80210;DHT22;69529;37.974;23.708;2023-04-24T12:10:34;25.10;43.50
80210;DHT22;69529;37.974;23.708;2023-04-24T12:13:02;25.10;43.50
80210;DHT22;69529;37.974;23.708;2023-04-24T12:15:30;25.10;43.50
80210;DHT22;69529;37.974;23.708;2023-04-24T12:17:57;25.10;43.60
80210;DHT22;69529;37.974;23.708;2023-04-24T12:20:31;25.10;43.80
80210;DHT22;69529;37.974;23.708;2023-04-24T12:23:00;25.10;43.80
80210;DHT22;69529;37.974;23.708;2023-04-24T12:25:29;25.10;43.80
80210;DHT22;69529;37.974;23.708;2023-04-24T12:30:41;25.10;44.30
80210;DHT22;69529;37.974;23.708;2023-04-24T12:33:11;25.10;43.60
80210;DHT22;69529;37.974;23.708;2023-04-24T12:35:40;25.10;43.40
80210;DHT22;69529;37.974;23.708;2023-04-24T12:38:12;25.00;43.30
80210;DHT22;69529;37.974;23.708;2023-04-24T12:40:42;25.00;43.30
80210;DHT22;69529;37.974;23.708;2023-04-24T12:43:29;25.00;43.50
80210;DHT22;69529;37.974;23.708;2023-04-24T12:45:58;25.00;43.40
80210;DHT22;69529;37.974;23.708;2023-04-24T12:48:27;25.00;43.30
80210;DHT22;69529;37.974;23.708;2023-04-24T12:50:56;25.00;43.20
80210;DHT22;69529;37.974;23.708;2023-04-24T12:53:24;25.10;43.10
80210;DHT22;69529;37.974;23.708;2023-04-24T12:55:53;25.10;43.10
80210;DHT22;69529;37.974;23.708;2023-04-24T12:58:22;25.10;42.90
80210;DHT22;69529;37.974;23.708;2023-04-24T13:00:50;25.10;42.80
80210;DHT22;69529;37.974;23.708;2023-04-24T13:03:18;25.10;42.50
80210;DHT22;69529;37.974;23.708;2023-04-24T13:05:46;25.10;42.40
80210;DHT22;69529;37.974;23.708;2023-04-24T13:08:14;25.10;42.40
80210;DHT22;69529;37.974;23.708;2023-04-24T13:10:41;25.10;42.20
80210;DHT22;69529;37.974;23.708;2023-04-24T13:13:09;25.10;42.00
80210;DHT22;69529;37.974;23.708;2023-04-24T13:15:37;25.10;41.70
80210;DHT22;69529;37.974;23.708;2023-04-24T13:18:04;25.20;41.30
80210;DHT22;69529;37.974;23.708;2023-04-24T13:20:32;25.20;41.00
80210;DHT22;69529;37.974;23.708;2023-04-24T13:23:02;25.20;41.00
80210;DHT22;69529;37.974;23.708;2023-04-24T13:25:34;25.10;41.10
80210;DHT22;69529;37.974;23.708;2023-04-24T13:28:00;25.20;41.10
80210;DHT22;69529;37.974;23.708;2023-04-24T13:30:28;25.30;41.30
80210;DHT22;69529;37.974;23.708;2023-04-24T13:32:55;25.30;41.90
80210;DHT22;69529;37.974;23.708;2023-04-24T13:35:23;25.30;41.20
80210;DHT22;69529;37.974;23.708;2023-04-24T13:37:51;25.20;41.00
80210;DHT22;69529;37.974;23.708;2023-04-24T13:40:18;25.10;41.20
80210;DHT22;69529;37.974;23.708;2023-04-24T13:42:46;25.10;41.30
80210;DHT22;69529;37.974;23.708;2023-04-24T13:45:14;25.10;41.40
80210;DHT22;69529;37.974;23.708;2023-04-24T13:47:41;25.20;41.50
80210;DHT22;69529;37.974;23.708;2023-04-24T13:50:09;25.20;41.50
80210;DHT22;69529;37.974;23.708;2023-04-24T13:52:37;25.10;41.70
80210;DHT22;69529;37.974;23.708;2023-04-24T13:55:05;25.10;41.80
80210;DHT22;69529;37.974;23.708;2023-04-24T13:57:33;25.10;41.90
80210;DHT22;69529;37.974;23.708;2023-04-24T14:00:01;25.00;42.10
80210;DHT22;69529;37.974;23.708;2023-04-24T14:02:30;25.00;42.30
80210;DHT22;69529;37.974;23.708;2023-04-24T14:04:58;24.90;42.40
80210;DHT22;69529;37.974;23.708;2023-04-24T14:07:25;24.90;42.60
80210;DHT22;69529;37.974;23.708;2023-04-24T14:09:53;24.90;42.70
80210;DHT22;69529;37.974;23.708;2023-04-24T14:12:21;24.90;42.70
80210;DHT22;69529;37.974;23.708;2023-04-24T14:14:48;24.90;42.90
80210;DHT22;69529;37.974;23.708;2023-04-24T14:17:16;24.80;43.10
80210;DHT22;69529;37.974;23.708;2023-04-24T14:19:44;24.80;43.10
80210;DHT22;69529;37.974;23.708;2023-04-24T14:22:12;24.80;43.10
80210;DHT22;69529;37.974;23.708;2023-04-24T14:24:39;24.80;43.10
80210;DHT22;69529;37.974;23.708;2023-04-24T14:27:07;24.80;43.00
80210;DHT22;69529;37.974;23.708;2023-04-24T14:29:35;24.80;42.90
80210;DHT22;69529;37.974;23.708;2023-04-24T14:32:02;24.80;42.80
80210;DHT22;69529;37.974;23.708;2023-04-24T14:34:30;24.80;42.60
80210;DHT22;69529;37.974;23.708;2023-04-24T14:36:57;24.80;42.40
80210;DHT22;69529;37.974;23.708;2023-04-24T14:39:25;24.80;42.30
80210;DHT22;69529;37.974;23.708;2023-04-24T14:41:53;24.70;42.30
80210;DHT22;69529;37.974;23.708;2023-04-24T14:44:21;24.80;42.40
80210;DHT22;69529;37.974;23.708;2023-04-24T14:47:08;24.70;42.20
80210;DHT22;69529;37.974;23.708;2023-04-24T14:49:36;24.70;42.50
80210;DHT22;69529;37.974;23.708;2023-04-24T14:52:04;24.70;42.50
80210;DHT22;69529;37.974;23.708;2023-04-24T14:54:31;24.70;42.90
80210;DHT22;69529;37.974;23.708;2023-04-24T14:56:59;24.70;43.00
80210;DHT22;69529;37.974;23.708;2023-04-24T14:59:28;24.60;43.40
80210;DHT22;69529;37.974;23.708;2023-04-24T15:01:56;24.60;43.60
80210;DHT22;69529;37.974;23.708;2023-04-24T15:04:25;24.60;43.60
80210;DHT22;69529;37.974;23.708;2023-04-24T15:06:53;24.70;43.60
80210;DHT22;69529;37.974;23.708;2023-04-24T15:09:21;24.70;43.10
80210;DHT22;69529;37.974;23.708;2023-04-24T15:11:49;24.70;43.10
80210;DHT22;69529;37.974;23.708;2023-04-24T15:14:17;24.60;42.90
80210;DHT22;69529;37.974;23.708;2023-04-24T15:16:45;24.60;42.50
80210;DHT22;69529;37.974;23.708;2023-04-24T15:19:13;24.60;42.10
80210;DHT22;69529;37.974;23.708;2023-04-24T15:21:40;24.60;42.10
80210;DHT22;69529;37.974;23.708;2023-04-24T15:24:10;24.60;42.30
80210;DHT22;69529;37.974;23.708;2023-04-24T15:26:37;24.60;42.30
80210;DHT22;69529;37.974;23.708;2023-04-24T15:29:05;24.60;42.40
80210;DHT22;69529;37.974;23.708;2023-04-24T15:31:32;24.60;42.30